createdAt,value
2022-10-18T00:00:11.198Z,13.88
2022-10-18T00:03:14.085Z,13.93
2022-10-18T00:06:16.810Z,14.25
2022-10-18T00:09:19.744Z,19.73
2022-10-18T00:12:22.378Z,14.13
2022-10-18T00:15:25.290Z,12.48
2022-10-18T00:18:28.674Z,13.00
2022-10-18T00:21:31.700Z,13.38
2022-10-18T00:24:34.316Z,15.27
2022-10-18T00:27:37.223Z,14.13
2022-10-18T00:30:39.899Z,12.02
2022-10-18T00:33:44.672Z,12.63
2022-10-18T00:36:48.366Z,12.40
2022-10-18T00:42:58.795Z,14.33
2022-10-18T00:46:04.067Z,16.12
2022-10-18T00:49:27.679Z,16.10
2022-10-18T00:52:57.039Z,12.02
2022-10-18T00:55:59.723Z,13.90
2022-10-18T00:59:03.432Z,14.50
2022-10-18T01:02:07.221Z,11.32
2022-10-18T01:05:12.961Z,12.18
2022-10-18T01:08:50.380Z,18.52
2022-10-18T01:12:33.182Z,14.90
2022-10-18T01:15:47.949Z,14.73
2022-10-18T01:18:57.221Z,12.52
2022-10-18T01:22:07.762Z,14.60
2022-10-18T01:25:26.377Z,13.30
2022-10-18T01:28:53.958Z,12.70
2022-10-18T01:32:07.529Z,13.53
2022-10-18T01:35:18.271Z,14.90
2022-10-18T01:38:24.038Z,15.27
2022-10-18T01:41:28.612Z,13.85
2022-10-18T01:44:33.683Z,16.42
2022-10-18T01:47:38.602Z,14.27
2022-10-18T01:50:42.201Z,14.73
2022-10-18T01:53:44.863Z,14.00
2022-10-18T01:56:50.487Z,13.62
2022-10-18T02:00:12.844Z,15.38
2022-10-18T02:03:24.486Z,15.27
2022-10-18T02:06:32.635Z,13.02
2022-10-18T02:09:43.150Z,19.58
2022-10-18T02:12:48.758Z,19.67
2022-10-18T02:15:59.654Z,19.52
2022-10-18T02:19:28.570Z,19.37
2022-10-18T02:22:33.966Z,19.62
2022-10-18T02:25:37.443Z,22.55
2022-10-18T02:28:43.692Z,21.23
2022-10-18T02:31:49.385Z,23.92
2022-10-18T02:35:18.664Z,21.02
2022-10-18T02:38:26.920Z,19.05
2022-10-18T02:41:31.392Z,19.83
2022-10-18T02:44:38.336Z,17.83
2022-10-18T02:47:41.415Z,20.37
2022-10-18T02:50:44.041Z,18.27
2022-10-18T02:53:46.932Z,21.98
2022-10-18T02:56:49.845Z,20.83
2022-10-18T02:59:52.760Z,18.33
2022-10-18T03:02:55.450Z,17.20
2022-10-18T03:05:58.399Z,16.80
2022-10-18T03:09:06.093Z,18.67
2022-10-18T03:12:09.184Z,24.50
2022-10-18T03:15:11.801Z,25.57
2022-10-18T03:18:15.615Z,26.50
2022-10-18T03:21:18.616Z,16.62
2022-10-18T03:24:21.455Z,16.98
2022-10-18T03:27:24.804Z,18.25
2022-10-18T03:30:27.812Z,17.37
2022-10-18T03:33:31.898Z,18.92
2022-10-18T03:36:34.956Z,18.60
2022-10-18T03:39:37.515Z,15.98
2022-10-18T03:42:40.488Z,17.25
2022-10-18T03:45:43.063Z,15.27
2022-10-18T03:48:45.980Z,16.30
2022-10-18T03:51:48.535Z,16.60
2022-10-18T03:54:53.962Z,16.85
2022-10-18T03:57:56.607Z,18.33
2022-10-18T04:01:00.830Z,26.33
2022-10-18T04:04:05.086Z,13.35
2022-10-18T04:07:07.749Z,15.88
2022-10-18T04:10:10.795Z,18.23
2022-10-18T04:13:13.798Z,17.58
2022-10-18T04:16:16.675Z,24.83
2022-10-18T04:19:19.340Z,18.02
2022-10-18T04:22:22.251Z,16.30
2022-10-18T04:25:25.330Z,19.58
2022-10-18T04:28:28.250Z,20.00
2022-10-18T04:31:31.813Z,20.03
2022-10-18T04:34:34.756Z,19.80
2022-10-18T04:37:37.437Z,21.08
2022-10-18T04:40:40.564Z,22.58
2022-10-18T04:43:43.248Z,20.33
2022-10-18T04:46:46.385Z,23.03
2022-10-18T04:49:48.987Z,18.45
2022-10-18T04:52:53.727Z,22.25
2022-10-18T04:55:56.747Z,23.87
2022-10-18T04:59:00.046Z,27.77
2022-10-18T05:05:14.016Z,28.95
2022-10-18T05:08:16.990Z,23.62
2022-10-18T05:11:19.921Z,21.35
2022-10-18T05:14:22.651Z,29.27
2022-10-18T05:17:25.540Z,21.10
2022-10-18T05:20:28.188Z,19.67
2022-10-18T05:23:31.055Z,19.02
2022-10-18T05:26:33.662Z,22.40
2022-10-18T05:29:36.793Z,26.73
2022-10-18T05:32:39.319Z,22.73
2022-10-18T05:35:42.905Z,28.42
2022-10-18T05:38:45.717Z,26.42
2022-10-18T05:41:48.659Z,25.88
2022-10-18T05:44:51.273Z,22.37
2022-10-18T05:47:54.744Z,23.47
2022-10-18T05:51:01.154Z,40.45
2022-10-18T05:54:04.252Z,49.72
2022-10-18T05:57:06.794Z,42.55
2022-10-18T06:00:10.607Z,52.35
2022-10-18T06:03:14.163Z,49.03
2022-10-18T06:06:17.331Z,43.55
2022-10-18T06:09:23.920Z,48.87
2022-10-18T06:12:27.032Z,47.70
2022-10-18T06:15:29.914Z,44.90
2022-10-18T06:18:32.808Z,49.27
2022-10-18T06:21:35.411Z,37.17
2022-10-18T06:24:38.704Z,32.17
2022-10-18T06:27:42.357Z,25.67
2022-10-18T06:30:45.537Z,24.83
2022-10-18T06:33:50.790Z,23.20
2022-10-18T06:36:56.416Z,26.25
2022-10-18T06:40:02.766Z,24.77
2022-10-18T06:43:20.763Z,27.27
2022-10-18T06:46:24.504Z,24.60
2022-10-18T06:49:27.478Z,25.47
2022-10-18T06:52:30.285Z,20.80
2022-10-18T06:55:33.468Z,23.73
2022-10-18T06:58:36.746Z,20.23
2022-10-18T07:01:39.669Z,22.60
2022-10-18T07:04:42.439Z,19.40
2022-10-18T07:07:45.392Z,22.65
2022-10-18T07:10:53.412Z,20.25
2022-10-18T07:14:03.224Z,21.40
2022-10-18T07:17:06.880Z,24.02
2022-10-18T07:20:10.313Z,21.33
2022-10-18T07:23:12.879Z,29.02
2022-10-18T07:26:20.348Z,18.92
2022-10-18T07:29:23.036Z,21.50
2022-10-18T07:32:25.964Z,22.10
2022-10-18T07:35:28.602Z,20.20
2022-10-18T07:38:32.113Z,18.35
2022-10-18T07:41:35.572Z,15.65
2022-10-18T07:44:39.926Z,15.65
2022-10-18T07:47:42.534Z,12.15
2022-10-18T07:50:45.612Z,11.50
2022-10-18T07:53:48.665Z,15.25
2022-10-18T07:56:51.600Z,6.82
2022-10-18T07:59:57.063Z,10.70
2022-10-18T08:03:00.195Z,10.60
2022-10-18T08:06:06.371Z,10.27
2022-10-18T08:09:08.968Z,9.00
2022-10-18T08:12:11.903Z,9.15
2022-10-18T08:15:14.930Z,11.25
2022-10-18T08:18:17.848Z,8.70
2022-10-18T08:21:21.735Z,7.70
2022-10-18T08:24:24.688Z,5.40
2022-10-18T08:27:30.513Z,8.43
2022-10-18T08:30:34.896Z,12.10
2022-10-18T08:33:38.749Z,15.32
2022-10-18T08:36:41.650Z,7.97
2022-10-18T08:39:44.575Z,12.37
2022-10-18T08:43:21.414Z,9.88
2022-10-18T08:46:25.425Z,14.27
2022-10-18T08:49:46.848Z,13.20
2022-10-18T08:53:17.850Z,11.73
2022-10-18T08:56:24.285Z,12.40
2022-10-18T08:59:37.552Z,8.23
2022-10-18T09:03:25.754Z,8.43
2022-10-18T09:06:47.125Z,7.90
2022-10-18T09:10:19.575Z,8.37
2022-10-18T09:13:57.189Z,11.15
2022-10-18T09:17:13.670Z,10.02
2022-10-18T09:20:23.440Z,9.23
2022-10-18T09:23:48.916Z,10.18
2022-10-18T09:26:58.972Z,10.23
2022-10-18T09:30:14.514Z,9.80
2022-10-18T09:33:40.802Z,11.50
2022-10-18T09:36:45.821Z,13.55
2022-10-18T09:39:50.922Z,8.30
2022-10-18T09:43:18.101Z,8.93
2022-10-18T09:46:24.136Z,8.23
2022-10-18T09:49:36.953Z,10.75
2022-10-18T09:52:52.079Z,8.52
2022-10-18T09:56:06.816Z,11.68
2022-10-18T09:59:33.539Z,8.10
2022-10-18T10:02:36.767Z,10.60
2022-10-18T10:05:39.687Z,12.25
2022-10-18T10:08:53.645Z,8.90
2022-10-18T10:11:57.803Z,11.60
2022-10-18T10:15:09.727Z,12.10
2022-10-18T10:18:21.953Z,9.35
2022-10-18T10:21:24.961Z,13.50
2022-10-18T10:25:03.049Z,8.18
2022-10-18T10:28:14.283Z,12.07
2022-10-18T10:31:28.868Z,8.70
2022-10-18T10:34:31.961Z,8.40
2022-10-18T10:37:37.933Z,11.45
2022-10-18T10:40:50.587Z,10.98
2022-10-18T10:43:55.276Z,12.43
2022-10-18T10:46:58.487Z,7.63
2022-10-18T10:50:12.294Z,8.35
2022-10-18T10:53:30.880Z,10.93
2022-10-18T10:56:37.935Z,10.70
2022-10-18T10:59:45.482Z,8.95
2022-10-18T11:02:59.300Z,9.73
2022-10-18T11:06:31.956Z,13.70
2022-10-18T11:09:56.515Z,9.77
2022-10-18T11:13:25.064Z,9.70
2022-10-18T11:16:40.054Z,9.70
2022-10-18T11:20:05.899Z,9.30
2022-10-18T11:23:15.545Z,9.20
2022-10-18T11:26:30.363Z,10.57
2022-10-18T11:29:42.868Z,20.35
2022-10-18T11:33:17.171Z,9.77
2022-10-18T11:36:49.471Z,12.00
2022-10-18T11:40:35.724Z,12.25
2022-10-18T11:44:03.523Z,10.15
2022-10-18T11:47:16.189Z,11.23
2022-10-18T11:50:21.724Z,12.57
2022-10-18T11:53:38.288Z,10.30
2022-10-18T11:57:02.669Z,16.30
2022-10-18T12:00:22.015Z,7.97
2022-10-18T12:03:29.578Z,8.65
2022-10-18T12:06:37.681Z,10.85
2022-10-18T12:09:43.901Z,7.80
2022-10-18T12:13:01.495Z,11.75
2022-10-18T12:16:07.087Z,13.45
2022-10-18T12:19:26.304Z,7.47
2022-10-18T12:22:39.959Z,9.45
2022-10-18T12:25:49.406Z,7.83
2022-10-18T12:29:27.532Z,9.18
2022-10-18T12:32:35.131Z,10.30
2022-10-18T12:35:50.391Z,7.95
2022-10-18T12:39:02.883Z,11.02
2022-10-18T12:42:06.050Z,9.37
2022-10-18T12:45:27.076Z,12.60
2022-10-18T12:48:34.159Z,12.00
2022-10-18T12:51:50.616Z,11.88
2022-10-18T12:55:18.377Z,7.53
2022-10-18T12:58:20.907Z,11.50
2022-10-18T13:01:25.445Z,17.17
2022-10-18T13:04:28.285Z,17.67
2022-10-18T13:07:33.667Z,11.63
2022-10-18T13:10:38.361Z,9.93
2022-10-18T13:14:08.466Z,13.23
2022-10-18T13:17:20.954Z,9.38
2022-10-18T13:20:40.893Z,12.35
2022-10-18T13:24:09.833Z,15.55
2022-10-18T13:27:35.948Z,10.05
2022-10-18T13:30:48.341Z,17.90
2022-10-18T13:33:51.817Z,17.60
2022-10-18T13:37:24.005Z,14.43
2022-10-18T13:40:27.136Z,11.27
2022-10-18T13:43:54.944Z,11.48
2022-10-18T13:46:57.915Z,10.47
2022-10-18T13:50:31.807Z,13.10
2022-10-18T13:53:52.017Z,8.80
2022-10-18T13:57:06.454Z,8.40
2022-10-18T14:00:15.122Z,12.10
2022-10-18T14:03:57.662Z,13.33
2022-10-18T14:07:02.712Z,11.32
2022-10-18T14:10:20.440Z,13.23
2022-10-18T14:13:33.991Z,12.00
2022-10-18T14:16:51.832Z,7.57
2022-10-18T14:20:03.491Z,6.90
2022-10-18T14:23:16.093Z,9.27
2022-10-18T14:26:20.851Z,10.98
2022-10-18T14:29:23.856Z,7.70
2022-10-18T14:32:30.019Z,8.30
2022-10-18T14:35:35.867Z,8.23
2022-10-18T14:39:01.686Z,9.63
2022-10-18T14:42:04.731Z,8.98
2022-10-18T14:45:18.941Z,9.63
2022-10-18T14:48:23.881Z,8.07
2022-10-18T14:51:30.308Z,7.70
2022-10-18T14:54:36.711Z,9.45
2022-10-18T14:57:39.426Z,13.95
2022-10-18T15:00:45.127Z,12.88
2022-10-18T15:03:50.959Z,10.75
2022-10-18T15:06:54.815Z,13.93
2022-10-18T15:09:59.619Z,9.10
2022-10-18T15:13:10.085Z,14.07
2022-10-18T15:16:22.853Z,20.90
2022-10-18T15:19:32.503Z,17.65
2022-10-18T15:22:35.142Z,14.20
2022-10-18T15:25:38.113Z,16.08
2022-10-18T15:28:51.267Z,20.62
2022-10-18T15:31:54.955Z,70.95
2022-10-18T15:35:20.994Z,53.40
2022-10-18T15:38:28.732Z,60.67
2022-10-18T15:42:01.878Z,59.28
2022-10-18T15:45:25.908Z,37.40
2022-10-18T15:48:47.517Z,96.25
2022-10-18T15:52:11.634Z,130.70
2022-10-18T15:55:29.612Z,102.77
2022-10-18T15:58:39.333Z,68.57
2022-10-18T16:01:45.092Z,35.47
2022-10-18T16:04:48.197Z,24.15
2022-10-18T16:07:54.226Z,28.58
2022-10-18T16:10:59.037Z,41.77
2022-10-18T16:14:01.724Z,40.97
2022-10-18T16:17:07.027Z,61.65
2022-10-18T16:20:24.664Z,61.30
2022-10-18T16:23:31.483Z,53.22
2022-10-18T16:26:35.037Z,67.97
2022-10-18T16:29:37.978Z,40.12
2022-10-18T16:32:41.009Z,26.02
2022-10-18T16:35:44.031Z,21.55
2022-10-18T16:38:47.672Z,20.05
2022-10-18T16:41:51.504Z,32.33
2022-10-18T16:44:55.197Z,27.02
2022-10-18T16:47:58.114Z,38.63
2022-10-18T16:51:01.806Z,53.25
2022-10-18T16:54:05.648Z,44.90
2022-10-18T16:57:12.701Z,44.43
2022-10-18T17:00:21.127Z,34.88
2022-10-18T17:03:24.731Z,30.17
2022-10-18T17:06:31.253Z,28.00
2022-10-18T17:09:36.015Z,32.13
2022-10-18T17:12:39.318Z,34.50
2022-10-18T17:15:42.766Z,57.40
2022-10-18T17:18:46.120Z,56.72
2022-10-18T17:21:48.839Z,57.08
2022-10-18T17:24:53.146Z,51.25
2022-10-18T17:27:56.989Z,51.53
2022-10-18T17:31:00.559Z,50.95
2022-10-18T17:34:03.780Z,51.50
2022-10-18T17:37:08.527Z,65.93
2022-10-18T17:40:13.240Z,72.07
2022-10-18T17:43:16.779Z,67.90
2022-10-18T17:46:20.365Z,69.53
2022-10-18T17:49:23.724Z,59.88
2022-10-18T17:52:27.158Z,67.28
2022-10-18T17:55:30.689Z,66.15
2022-10-18T17:58:33.807Z,69.33
2022-10-18T18:01:38.041Z,64.60
2022-10-18T18:04:41.699Z,69.37
2022-10-18T18:07:48.095Z,65.82
2022-10-18T18:10:55.963Z,63.05
2022-10-18T18:14:00.000Z,74.97
2022-10-18T18:17:03.401Z,76.37
2022-10-18T18:20:07.338Z,80.07
2022-10-18T18:23:10.849Z,75.85
2022-10-18T18:26:14.198Z,70.05
2022-10-18T18:29:17.677Z,62.57
2022-10-18T18:32:22.367Z,52.42
2022-10-18T18:35:25.856Z,50.33
2022-10-18T18:38:28.970Z,44.92
2022-10-18T18:41:32.877Z,42.97
2022-10-18T18:44:36.044Z,47.27
2022-10-18T18:47:42.555Z,44.90
2022-10-18T18:50:51.179Z,47.90
2022-10-18T18:53:55.747Z,46.47
2022-10-18T18:56:59.561Z,44.63
2022-10-18T19:00:03.429Z,38.60
2022-10-18T19:03:06.117Z,40.05
2022-10-18T19:06:19.809Z,42.20
2022-10-18T19:09:23.932Z,37.40
2022-10-18T19:12:27.633Z,39.30
2022-10-18T19:15:30.752Z,33.30
2022-10-18T19:18:34.134Z,32.63
2022-10-18T19:21:53.063Z,33.78
2022-10-18T19:24:58.098Z,36.78
2022-10-18T19:28:01.280Z,30.20
2022-10-18T19:31:04.645Z,32.20
2022-10-18T19:34:11.050Z,28.30
2022-10-18T19:37:15.873Z,34.17
2022-10-18T19:40:20.411Z,30.30
2022-10-18T19:43:23.995Z,30.83
2022-10-18T19:46:28.432Z,31.57
2022-10-18T19:49:32.158Z,33.38
2022-10-18T19:52:35.613Z,30.77
2022-10-18T19:55:39.198Z,33.88
2022-10-18T19:58:41.828Z,35.38
2022-10-18T20:01:45.644Z,29.07
2022-10-18T20:04:48.934Z,31.00
2022-10-18T20:07:51.946Z,32.03
2022-10-18T20:10:55.549Z,35.53
2022-10-18T20:14:00.453Z,32.05
2022-10-18T20:17:06.315Z,32.77
2022-10-18T20:20:09.561Z,29.83
2022-10-18T20:23:12.604Z,34.72
2022-10-18T20:26:20.843Z,31.30
2022-10-18T20:29:25.561Z,37.03
2022-10-18T20:32:28.168Z,33.93
2022-10-18T20:35:32.309Z,31.30
2022-10-18T20:38:36.516Z,33.17
2022-10-18T20:41:43.129Z,35.55
2022-10-18T20:44:47.236Z,30.40
2022-10-18T20:47:50.178Z,33.73
2022-10-18T20:50:52.909Z,28.33
2022-10-18T20:53:56.133Z,29.20
2022-10-18T20:56:58.718Z,29.15
2022-10-18T21:00:01.682Z,42.47
2022-10-18T21:03:04.457Z,29.70
2022-10-18T21:06:14.679Z,26.15
2022-10-18T21:09:19.598Z,31.08
2022-10-18T21:12:22.940Z,26.15
2022-10-18T21:15:26.631Z,29.35
2022-10-18T21:18:32.709Z,27.27
2022-10-18T21:21:36.327Z,26.58
2022-10-18T21:24:39.299Z,26.75
2022-10-18T21:27:42.041Z,25.55
2022-10-18T21:30:44.931Z,23.87
2022-10-18T21:33:48.593Z,25.43
2022-10-18T21:36:51.534Z,27.95
2022-10-18T21:39:54.076Z,29.37
2022-10-18T21:42:57.528Z,25.15
2022-10-18T21:46:00.516Z,25.90
2022-10-18T21:49:05.635Z,26.30
2022-10-18T21:52:08.214Z,26.75
2022-10-18T21:55:11.217Z,30.15
2022-10-18T21:58:14.059Z,32.75
2022-10-18T22:01:29.090Z,25.73
2022-10-18T22:04:35.894Z,28.03
2022-10-18T22:07:41.079Z,25.48
2022-10-18T22:10:44.001Z,24.67
2022-10-18T22:13:47.115Z,24.63
2022-10-18T22:16:50.981Z,23.38
2022-10-18T22:19:53.973Z,22.43
2022-10-18T22:22:59.720Z,24.33
2022-10-18T22:26:12.128Z,23.87
2022-10-18T22:29:19.777Z,21.77
2022-10-18T22:32:22.352Z,22.90
2022-10-18T22:35:25.335Z,23.70
2022-10-18T22:38:32.343Z,24.08
2022-10-18T22:41:36.159Z,37.13
2022-10-18T22:44:38.982Z,21.17
2022-10-18T22:47:41.859Z,22.92
2022-10-18T22:50:44.619Z,20.13
2022-10-18T22:53:47.628Z,25.73
2022-10-18T22:56:50.499Z,24.23
2022-10-18T22:59:53.511Z,24.33
2022-10-18T23:02:56.201Z,23.38
2022-10-18T23:05:59.364Z,21.73
2022-10-18T23:09:05.408Z,21.77
2022-10-18T23:12:08.632Z,22.58
2022-10-18T23:15:11.883Z,22.83
2022-10-18T23:18:14.836Z,23.92
2022-10-18T23:21:19.546Z,21.80
2022-10-18T23:24:22.532Z,21.37
2022-10-18T23:27:25.130Z,22.13
2022-10-18T23:30:28.183Z,20.30
2022-10-18T23:33:30.788Z,25.83
2022-10-18T23:36:35.508Z,20.30
2022-10-18T23:39:39.005Z,20.55
2022-10-18T23:42:41.880Z,19.00
2022-10-18T23:48:52.539Z,24.85
2022-10-18T23:51:55.393Z,22.07
2022-10-18T23:54:58.307Z,21.73
2022-10-18T23:58:01.410Z,20.33
